METARs

EEEI - Ämari Air Base

EEEI 240550Z 01004KT 6000 -SN FEW009 SCT016 M12/M13 Q1035 R06/49

EEKA - Kärdla

EEKA 240850Z 03007KT 360V060 3300 +SN BKN015 M08/M11 Q1036

EEKE - Kuressaare

EEKE 251050Z 06009KT 030V090 9999 BKN044 M10/M15 Q1036 R17/1///9

EEPU - Pärnu

EEPU 251050Z 31005KT 9999 FEW019 BKN032 M11/M14 Q1034

EETN - Lennart Meri Tallinn

EETN 251050Z 36007KT 330V030 6000 -SN BKN009 M08/M10 Q1034 R08/4

EETU - Tartu

EETU 251050Z 27004KT 9999 FEW005 SCT014 M11/M16 Q1032

Sign In

ATC Booking

currently no ATC Bookings...